createdAt,value
2023-03-11T00:00:47.674Z,98259.28
2023-03-11T00:03:19.337Z,98262.84
2023-03-11T00:05:47.581Z,98260.34
2023-03-11T00:08:19.215Z,98245.84
2023-03-11T00:10:52.347Z,98245.66
2023-03-11T00:13:19.775Z,98256.16
2023-03-11T00:15:50.880Z,98259.56
2023-03-11T00:18:18.747Z,98246.94
2023-03-11T00:20:47.448Z,98249.47
2023-03-11T00:23:16.116Z,98249.44
2023-03-11T00:25:46.251Z,98251.06
2023-03-11T00:28:15.734Z,98269.09
2023-03-11T00:30:46.165Z,98257.81
2023-03-11T00:33:16.040Z,98252.69
2023-03-11T00:35:45.070Z,98249.31
2023-03-11T00:38:18.328Z,98243.16
2023-03-11T00:40:48.185Z,98244.72
2023-03-11T00:43:17.121Z,98242.06
2023-03-11T00:45:44.801Z,98241.13
2023-03-11T00:48:14.115Z,98239.59
2023-03-11T00:50:42.140Z,98246.34
2023-03-11T00:53:11.400Z,98243.88
2023-03-11T00:55:38.853Z,98236.13
2023-03-11T00:58:11.158Z,98221.88
2023-03-11T01:00:46.189Z,98206.91
2023-03-11T01:03:13.550Z,98208.72
2023-03-11T01:05:40.883Z,98205.22
2023-03-11T01:08:08.220Z,98189.69
2023-03-11T01:10:36.280Z,98185.81
2023-03-11T01:13:04.703Z,98164.75
2023-03-11T01:15:36.597Z,98168.53
2023-03-11T01:18:05.969Z,98181.53
2023-03-11T01:20:36.429Z,98176.09
2023-03-11T01:23:04.484Z,98187.97
2023-03-11T01:25:31.746Z,98191.28
2023-03-11T01:28:00.400Z,98177.25
2023-03-11T01:30:30.055Z,98170.09
2023-03-11T01:32:58.554Z,98157.41
2023-03-11T01:35:29.286Z,98162.78
2023-03-11T01:37:57.926Z,98179.47
2023-03-11T01:40:43.329Z,98183.38
2023-03-11T01:43:40.810Z,98171.13
2023-03-11T01:46:21.394Z,98153.59
2023-03-11T01:49:00.348Z,98164.06
2023-03-11T01:51:44.884Z,98158.91
2023-03-11T01:54:36.072Z,98163.47
2023-03-11T01:57:12.793Z,98155.34
2023-03-11T01:59:49.182Z,98143.38
2023-03-11T02:02:36.936Z,98139.94
2023-03-11T02:05:05.612Z,98144.28
2023-03-11T02:07:33.254Z,98138.00
2023-03-11T02:10:02.137Z,98149.28
2023-03-11T02:12:35.562Z,98148.06
2023-03-11T02:15:06.743Z,98149.78
2023-03-11T02:17:38.609Z,98151.22
2023-03-11T02:20:30.315Z,98150.50
2023-03-11T02:22:57.791Z,98137.41
2023-03-11T02:26:12.569Z,98128.56
2023-03-11T02:28:41.203Z,98121.69
2023-03-11T02:31:08.774Z,98120.97
2023-03-11T02:33:37.802Z,98135.66
2023-03-11T02:36:06.016Z,98128.44
2023-03-11T02:38:33.403Z,98138.25
2023-03-11T02:41:02.927Z,98137.19
2023-03-11T02:43:44.021Z,98136.94
2023-03-11T02:46:15.390Z,98128.03
2023-03-11T02:48:43.611Z,98125.78
2023-03-11T02:51:12.052Z,98133.53
2023-03-11T02:53:53.321Z,98121.19
2023-03-11T02:56:21.077Z,98119.22
2023-03-11T02:58:48.387Z,98112.75
2023-03-11T03:01:16.080Z,98103.66
2023-03-11T03:03:45.726Z,98096.69
2023-03-11T03:06:13.757Z,98094.28
2023-03-11T03:08:41.204Z,98080.06
2023-03-11T03:11:08.544Z,98069.50
2023-03-11T03:13:36.294Z,98073.56
2023-03-11T03:16:04.397Z,98057.22
2023-03-11T03:18:33.741Z,98058.97
2023-03-11T03:21:01.388Z,98082.22
2023-03-11T03:23:28.736Z,98091.69
2023-03-11T03:25:57.255Z,98096.19
2023-03-11T03:28:24.810Z,98105.53
2023-03-11T03:30:52.059Z,98111.94
2023-03-11T03:33:19.514Z,98124.16
2023-03-11T03:35:47.136Z,98134.09
2023-03-11T03:38:19.439Z,98126.34
2023-03-11T03:40:48.566Z,98118.13
2023-03-11T03:43:18.789Z,98109.06
2023-03-11T03:45:56.946Z,98083.09
2023-03-11T03:48:26.621Z,98052.34
2023-03-11T03:50:54.181Z,98051.44
2023-03-11T03:53:21.545Z,98069.78
2023-03-11T03:55:50.812Z,98096.81
2023-03-11T03:58:18.759Z,98110.09
2023-03-11T04:00:45.961Z,98127.44
2023-03-11T04:03:13.352Z,98141.97
2023-03-11T04:06:18.032Z,98146.09
2023-03-11T04:08:47.084Z,98158.84
2023-03-11T04:11:14.731Z,98163.84
2023-03-11T04:13:44.574Z,98151.03
2023-03-11T04:16:20.204Z,98132.88
2023-03-11T04:18:48.173Z,98129.31
2023-03-11T04:21:15.611Z,98105.00
2023-03-11T04:23:43.151Z,98121.94
2023-03-11T04:26:11.752Z,98087.94
2023-03-11T04:28:39.179Z,98082.88
2023-03-11T04:31:06.548Z,98079.34
2023-03-11T04:33:34.706Z,98085.56
2023-03-11T04:36:07.984Z,98076.97
2023-03-11T04:38:37.051Z,98089.97
2023-03-11T04:41:07.676Z,98092.22
2023-03-11T04:43:37.492Z,98072.91
2023-03-11T04:46:04.908Z,98061.75
2023-03-11T04:48:32.541Z,98056.69
2023-03-11T04:50:59.710Z,98045.41
2023-03-11T04:53:28.278Z,98043.78
2023-03-11T04:55:56.296Z,98042.16
2023-03-11T04:58:23.638Z,98040.28
2023-03-11T05:00:52.127Z,98045.72
2023-03-11T05:03:19.389Z,98051.69
2023-03-11T05:05:46.566Z,98051.41
2023-03-11T05:08:13.786Z,98052.44
2023-03-11T05:10:42.725Z,98066.91
2023-03-11T05:13:10.812Z,98085.56
2023-03-11T05:15:39.890Z,98115.16
2023-03-11T05:18:08.245Z,98150.63
2023-03-11T05:20:37.892Z,98152.91
2023-03-11T05:23:05.815Z,98151.38
2023-03-11T05:25:35.585Z,98160.63
2023-03-11T05:28:04.092Z,98145.56
2023-03-11T05:30:33.021Z,98149.94
2023-03-11T05:33:00.532Z,98132.88
2023-03-11T05:35:28.213Z,98106.16
2023-03-11T05:37:56.093Z,98074.63
2023-03-11T05:40:25.791Z,98070.09
2023-03-11T05:42:53.154Z,98028.44
2023-03-11T05:45:20.490Z,98027.34
2023-03-11T05:47:52.142Z,98047.16
2023-03-11T05:50:20.122Z,98022.63
2023-03-11T05:52:48.653Z,98061.34
2023-03-11T05:55:16.661Z,98110.88
2023-03-11T05:57:45.649Z,98127.44
2023-03-11T06:00:13.866Z,98111.91
2023-03-11T06:02:43.029Z,98126.50
2023-03-11T06:05:14.070Z,98116.84
2023-03-11T06:07:43.053Z,98125.06
2023-03-11T06:10:11.804Z,98111.97
2023-03-11T06:12:39.864Z,98111.13
2023-03-11T06:15:22.404Z,98100.72
2023-03-11T06:17:50.104Z,98090.47
2023-03-11T06:20:18.205Z,98084.34
2023-03-11T06:22:49.695Z,98108.00
2023-03-11T06:25:17.471Z,98111.38
2023-03-11T06:27:51.593Z,98107.81
2023-03-11T06:30:20.476Z,98108.25
2023-03-11T06:33:07.989Z,98090.31
2023-03-11T06:35:35.227Z,98090.97
2023-03-11T06:38:02.421Z,98104.09
2023-03-11T06:40:29.630Z,98105.81
2023-03-11T06:42:56.777Z,98109.38
2023-03-11T06:45:26.243Z,98092.97
2023-03-11T06:47:53.793Z,98089.06
2023-03-11T06:50:23.966Z,98091.25
2023-03-11T06:52:52.096Z,98090.56
2023-03-11T06:55:21.121Z,98102.69
2023-03-11T06:57:48.518Z,98100.34
2023-03-11T07:00:17.306Z,98094.41
2023-03-11T07:02:49.613Z,98107.53
2023-03-11T07:05:18.118Z,98108.75
2023-03-11T07:07:46.022Z,98109.88
2023-03-11T07:10:13.437Z,98117.91
2023-03-11T07:12:40.843Z,98113.78
2023-03-11T07:15:09.539Z,98121.75
2023-03-11T07:17:36.831Z,98117.63
2023-03-11T07:20:05.237Z,98120.63
2023-03-11T07:22:32.368Z,98133.72
2023-03-11T07:24:59.646Z,98140.06
2023-03-11T07:27:28.193Z,98147.00
2023-03-11T07:29:55.375Z,98153.19
2023-03-11T07:32:22.640Z,98151.84
2023-03-11T07:34:49.824Z,98142.16
2023-03-11T07:37:16.965Z,98151.81
2023-03-11T07:39:44.177Z,98160.38
2023-03-11T07:42:11.344Z,98154.31
2023-03-11T07:44:39.474Z,98168.63
2023-03-11T07:47:07.434Z,98182.69
2023-03-11T07:49:36.364Z,98177.56
2023-03-11T07:52:04.801Z,98163.59
2023-03-11T07:54:32.000Z,98171.66
2023-03-11T07:56:59.225Z,98176.28
2023-03-11T07:59:26.445Z,98170.06
2023-03-11T08:01:53.644Z,98167.50
2023-03-11T08:04:20.914Z,98166.69
2023-03-11T08:06:48.641Z,98170.41
2023-03-11T08:09:15.815Z,98154.72
2023-03-11T08:11:43.305Z,98152.03
2023-03-11T08:14:10.653Z,98157.41
2023-03-11T08:16:41.130Z,98156.75
2023-03-11T08:19:13.807Z,98168.22
2023-03-11T08:21:40.957Z,98170.03
2023-03-11T08:24:11.384Z,98172.81
2023-03-11T08:26:38.635Z,98177.25
2023-03-11T08:29:06.102Z,98167.53
2023-03-11T08:31:35.192Z,98161.50
2023-03-11T08:34:08.727Z,98153.69
2023-03-11T08:36:36.296Z,98139.66
2023-03-11T08:39:04.038Z,98124.75
2023-03-11T08:41:31.289Z,98126.44
2023-03-11T08:43:58.442Z,98129.13
2023-03-11T08:46:34.358Z,98139.72
2023-03-11T08:49:03.405Z,98149.41
2023-03-11T08:51:34.314Z,98151.19
2023-03-11T08:54:02.214Z,98150.31
2023-03-11T08:56:30.449Z,98140.69
2023-03-11T08:58:57.828Z,98132.78
2023-03-11T09:01:25.634Z,98112.56
2023-03-11T09:03:52.870Z,98103.78
2023-03-11T09:06:20.993Z,98116.06
2023-03-11T09:08:49.183Z,98117.78
2023-03-11T09:11:18.768Z,98117.78
2023-03-11T09:13:45.951Z,98130.94
2023-03-11T09:16:18.029Z,98145.88
2023-03-11T09:18:45.534Z,98157.28
2023-03-11T09:21:13.375Z,98161.63
2023-03-11T09:23:43.984Z,98152.84
2023-03-11T09:26:12.625Z,98149.31
2023-03-11T09:28:41.387Z,98150.94
2023-03-11T09:31:09.691Z,98189.72
2023-03-11T09:33:39.116Z,98180.03
2023-03-11T09:36:07.721Z,98187.81
2023-03-11T09:38:34.857Z,98195.66
2023-03-11T09:41:17.864Z,98198.28
2023-03-11T09:44:05.916Z,98191.22
2023-03-11T09:47:10.327Z,98194.69
2023-03-11T09:50:21.422Z,98203.38
2023-03-11T09:52:59.000Z,98197.19
2023-03-11T09:55:53.651Z,98196.22
2023-03-11T09:58:35.627Z,98189.19
2023-03-11T10:01:26.467Z,98184.53
2023-03-11T10:04:09.806Z,98187.25
2023-03-11T10:06:38.263Z,98206.59
2023-03-11T10:09:43.732Z,98202.69
2023-03-11T10:12:44.921Z,98206.09
2023-03-11T10:15:48.277Z,98193.69
2023-03-11T10:18:36.506Z,98189.13
2023-03-11T10:21:54.438Z,98189.00
2023-03-11T10:25:18.693Z,98196.13
2023-03-11T10:28:21.467Z,98205.09
2023-03-11T10:31:18.704Z,98207.59
2023-03-11T10:34:02.445Z,98199.28
2023-03-11T10:36:40.595Z,98189.25
2023-03-11T10:39:11.473Z,98205.25
2023-03-11T10:41:52.148Z,98186.81
2023-03-11T10:44:29.714Z,98182.47
2023-03-11T10:46:56.937Z,98169.03
2023-03-11T10:49:24.168Z,98174.91
2023-03-11T10:51:54.185Z,98172.91
2023-03-11T10:54:34.558Z,98167.78
2023-03-11T10:57:19.306Z,98168.22
2023-03-11T10:59:51.704Z,98164.59
2023-03-11T11:02:32.841Z,98151.25
2023-03-11T11:05:36.631Z,98155.72
2023-03-11T11:08:15.992Z,98152.22
2023-03-11T11:11:03.635Z,98154.56
2023-03-11T11:13:35.420Z,98156.72
2023-03-11T11:16:18.930Z,98161.03
2023-03-11T11:19:14.663Z,98157.13
2023-03-11T11:21:49.448Z,98147.16
2023-03-11T11:24:29.412Z,98155.47
2023-03-11T11:27:26.043Z,98146.72
2023-03-11T11:30:11.195Z,98154.00
2023-03-11T11:32:38.878Z,98159.91
2023-03-11T11:35:16.438Z,98152.69
2023-03-11T11:37:52.446Z,98147.66
2023-03-11T11:40:32.829Z,98148.09
2023-03-11T11:43:12.087Z,98146.28
2023-03-11T11:45:45.666Z,98141.00
2023-03-11T11:48:27.182Z,98145.16
2023-03-11T11:51:08.834Z,98149.88
2023-03-11T11:53:52.840Z,98144.59
2023-03-11T11:56:23.997Z,98143.00
2023-03-11T11:58:52.857Z,98137.16
2023-03-11T12:02:18.155Z,98140.50
2023-03-11T12:04:58.534Z,98143.44
2023-03-11T12:08:00.197Z,98146.56
2023-03-11T12:10:32.055Z,98133.53
2023-03-11T12:13:32.505Z,98133.69
2023-03-11T12:16:45.923Z,98133.25
2023-03-11T12:19:49.071Z,98122.16
2023-03-11T12:22:59.414Z,98129.88
2023-03-11T12:26:12.092Z,98118.44
2023-03-11T12:28:57.634Z,98123.41
2023-03-11T12:31:28.134Z,98115.53
2023-03-11T12:34:04.955Z,98116.44
2023-03-11T12:36:43.783Z,98115.09
2023-03-11T12:39:28.687Z,98109.72
2023-03-11T12:42:11.068Z,98105.97
2023-03-11T12:44:40.102Z,98096.91
2023-03-11T12:47:28.770Z,98094.78
2023-03-11T12:50:34.789Z,98103.66
2023-03-11T12:53:01.960Z,98097.28
2023-03-11T12:55:35.191Z,98107.03
2023-03-11T12:58:29.954Z,98102.91
2023-03-11T13:01:25.824Z,98092.22
2023-03-11T13:04:33.265Z,98104.56
2023-03-11T13:08:00.288Z,98110.59
2023-03-11T13:10:40.822Z,98093.63
2023-03-11T13:13:42.029Z,98089.25
2023-03-11T13:16:15.206Z,98097.53
2023-03-11T13:18:45.292Z,98096.91
2023-03-11T13:21:27.684Z,98079.16
2023-03-11T13:24:22.705Z,98078.75
2023-03-11T13:26:59.333Z,98085.41
2023-03-11T13:30:10.406Z,98088.50
2023-03-11T13:33:25.753Z,98079.63
2023-03-11T13:36:20.830Z,98098.09
2023-03-11T13:39:14.172Z,98096.75
2023-03-11T13:41:44.619Z,98083.97
2023-03-11T13:44:37.339Z,98100.16
2023-03-11T13:47:13.314Z,98099.34
2023-03-11T13:50:06.436Z,98115.31
2023-03-11T13:52:47.650Z,98118.66
2023-03-11T13:55:35.728Z,98120.81
2023-03-11T13:58:26.540Z,98120.00
2023-03-11T14:01:01.298Z,98128.66
2023-03-11T14:03:44.103Z,98122.41
2023-03-11T14:06:19.842Z,98113.44
2023-03-11T14:08:57.872Z,98123.06
2023-03-11T14:11:29.469Z,98123.78
2023-03-11T14:13:56.713Z,98120.25
2023-03-11T14:16:36.258Z,98131.06
2023-03-11T14:19:16.428Z,98145.66
2023-03-11T14:21:50.571Z,98144.00
2023-03-11T14:24:25.781Z,98152.91
2023-03-11T14:26:56.118Z,98126.69
2023-03-11T14:29:38.635Z,98132.41
2023-03-11T14:32:32.485Z,98129.59
2023-03-11T14:35:00.522Z,98141.09
2023-03-11T14:37:36.368Z,98141.38
2023-03-11T14:40:25.320Z,98147.09
2023-03-11T14:42:56.472Z,98153.59
2023-03-11T14:45:29.869Z,98152.75
2023-03-11T14:48:15.319Z,98138.47
2023-03-11T14:50:49.245Z,98143.72
2023-03-11T14:53:29.898Z,98157.56
2023-03-11T14:56:07.293Z,98156.66
2023-03-11T14:58:41.344Z,98146.28
2023-03-11T15:01:26.026Z,98152.47
2023-03-11T15:04:14.089Z,98142.94
2023-03-11T15:06:44.949Z,98140.72
2023-03-11T15:09:23.431Z,98141.38
2023-03-11T15:12:04.162Z,98148.47
2023-03-11T15:14:35.737Z,98144.50
2023-03-11T15:17:34.726Z,98161.69
2023-03-11T15:20:34.241Z,98153.53
2023-03-11T15:23:07.611Z,98164.00
2023-03-11T15:25:38.677Z,98167.13
2023-03-11T15:28:33.007Z,98154.25
2023-03-11T15:31:21.329Z,98160.34
2023-03-11T15:33:49.498Z,98158.59
2023-03-11T15:36:45.472Z,98159.63
2023-03-11T15:39:31.451Z,98164.44
2023-03-11T15:42:07.873Z,98168.72
2023-03-11T15:45:04.325Z,98168.91
2023-03-11T15:47:31.679Z,98169.09
2023-03-11T15:50:23.481Z,98167.75
2023-03-11T15:52:57.020Z,98170.59
2023-03-11T15:55:27.316Z,98172.84
2023-03-11T15:58:03.991Z,98170.91
2023-03-11T16:00:31.566Z,98178.19
2023-03-11T16:02:58.761Z,98193.25
2023-03-11T16:05:26.175Z,98190.16
2023-03-11T16:07:53.824Z,98191.59
2023-03-11T16:10:25.438Z,98185.78
2023-03-11T16:12:52.596Z,98195.19
2023-03-11T16:15:28.382Z,98195.44
2023-03-11T16:18:03.830Z,98208.88
2023-03-11T16:20:44.445Z,98199.09
2023-03-11T16:23:22.782Z,98202.47
2023-03-11T16:26:01.681Z,98203.00
2023-03-11T16:28:29.193Z,98198.31
2023-03-11T16:30:56.700Z,98205.91
2023-03-11T16:33:23.958Z,98211.31
2023-03-11T16:35:51.282Z,98215.00
2023-03-11T16:38:19.511Z,98243.56
2023-03-11T16:41:01.216Z,98226.88
2023-03-11T16:43:30.298Z,98228.13
2023-03-11T16:45:57.693Z,98234.25
2023-03-11T16:48:25.078Z,98230.94
2023-03-11T16:50:52.343Z,98242.63
2023-03-11T16:53:19.692Z,98238.75
2023-03-11T16:55:48.380Z,98242.38
2023-03-11T16:58:15.765Z,98248.00
2023-03-11T17:00:43.714Z,98242.09
2023-03-11T17:03:12.504Z,98257.06
2023-03-11T17:05:40.053Z,98258.69
2023-03-11T17:08:07.435Z,98253.88
2023-03-11T17:10:42.650Z,98265.09
2023-03-11T17:13:13.192Z,98267.75
2023-03-11T17:15:44.198Z,98275.25
2023-03-11T17:18:12.741Z,98276.91
2023-03-11T17:20:43.367Z,98288.09
2023-03-11T17:23:10.657Z,98280.81
2023-03-11T17:25:41.611Z,98288.28
2023-03-11T17:28:09.817Z,98296.41
2023-03-11T17:30:42.170Z,98294.91
2023-03-11T17:33:09.500Z,98301.34
2023-03-11T17:35:36.966Z,98307.69
2023-03-11T17:38:04.134Z,98313.94
2023-03-11T17:40:32.675Z,98318.84
2023-03-11T17:43:00.517Z,98318.97
2023-03-11T17:45:27.811Z,98332.38
2023-03-11T17:47:55.133Z,98337.88
2023-03-11T17:50:22.447Z,98331.75
2023-03-11T17:52:49.645Z,98345.03
2023-03-11T17:55:16.919Z,98343.47
2023-03-11T17:57:45.890Z,98347.22
2023-03-11T18:00:15.230Z,98347.28
2023-03-11T18:02:42.868Z,98364.97
2023-03-11T18:05:10.523Z,98375.59
2023-03-11T18:07:39.114Z,98379.13
2023-03-11T18:10:08.902Z,98378.31
2023-03-11T18:12:36.686Z,98382.75
2023-03-11T18:15:08.119Z,98389.84
2023-03-11T18:17:35.481Z,98400.47
2023-03-11T18:20:03.445Z,98401.38
2023-03-11T18:22:30.654Z,98404.03
2023-03-11T18:24:57.843Z,98416.50
2023-03-11T18:27:24.988Z,98418.28
2023-03-11T18:29:52.362Z,98423.63
2023-03-11T18:32:20.785Z,98421.88
2023-03-11T18:34:51.314Z,98424.53
2023-03-11T18:37:18.569Z,98428.94
2023-03-11T18:39:46.026Z,98439.56
2023-03-11T18:42:14.045Z,98446.63
2023-03-11T18:44:42.187Z,98450.13
2023-03-11T18:47:09.455Z,98456.34
2023-03-11T18:49:36.803Z,98451.09
2023-03-11T18:52:04.320Z,98451.94
2023-03-11T18:54:31.579Z,98464.28
2023-03-11T18:56:58.728Z,98457.22
2023-03-11T18:59:27.679Z,98460.78
2023-03-11T19:01:55.352Z,98462.53
2023-03-11T19:04:22.922Z,98466.97
2023-03-11T19:06:50.205Z,98473.13
2023-03-11T19:09:18.441Z,98473.13
2023-03-11T19:11:46.182Z,98477.56
2023-03-11T19:14:13.564Z,98496.91
2023-03-11T19:16:40.869Z,98492.50
2023-03-11T19:19:10.710Z,98496.03
2023-03-11T19:21:38.837Z,98493.38
2023-03-11T19:24:06.207Z,98501.28
2023-03-11T19:26:45.802Z,98494.19
2023-03-11T19:29:14.471Z,98511.81
2023-03-11T19:31:43.705Z,98506.53
2023-03-11T19:34:11.221Z,98510.84
2023-03-11T19:36:39.418Z,98506.56
2023-03-11T19:39:07.014Z,98511.84
2023-03-11T19:41:34.683Z,98516.22
2023-03-11T19:44:04.014Z,98512.72
2023-03-11T19:46:34.447Z,98522.41
2023-03-11T19:49:03.122Z,98525.00
2023-03-11T19:51:42.529Z,98525.81
2023-03-11T19:54:16.268Z,98523.19
2023-03-11T19:56:43.734Z,98523.13
2023-03-11T19:59:11.128Z,98523.06
2023-03-11T20:01:38.634Z,98534.38
2023-03-11T20:04:06.160Z,98527.31
2023-03-11T20:06:33.556Z,98525.53
2023-03-11T20:09:00.855Z,98522.91
2023-03-11T20:11:28.012Z,98527.16
2023-03-11T20:13:56.320Z,98538.56
2023-03-11T20:16:23.687Z,98540.28
2023-03-11T20:18:51.647Z,98546.31
2023-03-11T20:21:19.267Z,98550.72
2023-03-11T20:23:46.572Z,98557.75
2023-03-11T20:26:18.356Z,98580.41
2023-03-11T20:28:45.812Z,98573.13
2023-03-11T20:31:21.403Z,98576.44
2023-03-11T20:33:50.764Z,98577.19
2023-03-11T20:36:23.632Z,98579.94
2023-03-11T20:38:53.388Z,98582.50
2023-03-11T20:41:23.295Z,98588.72
2023-03-11T20:43:57.078Z,98597.53
2023-03-11T20:46:24.446Z,98589.75
2023-03-11T20:48:51.630Z,98591.34
2023-03-11T20:51:20.509Z,98604.28
2023-03-11T20:53:48.798Z,98606.59
2023-03-11T20:56:22.495Z,98616.03
2023-03-11T20:58:51.269Z,98621.13
2023-03-11T21:01:27.117Z,98624.41
2023-03-11T21:04:02.089Z,98626.81
2023-03-11T21:06:38.405Z,98634.03
2023-03-11T21:09:13.535Z,98634.81
2023-03-11T21:11:41.558Z,98649.13
2023-03-11T21:14:15.972Z,98654.13
2023-03-11T21:16:45.302Z,98672.06
2023-03-11T21:19:14.076Z,98676.84
2023-03-11T21:21:41.428Z,98681.28
2023-03-11T21:24:10.875Z,98681.84
2023-03-11T21:26:38.352Z,98683.88
2023-03-11T21:29:06.076Z,98676.75
2023-03-11T21:31:33.928Z,98702.94
2023-03-11T21:34:01.342Z,98720.97
2023-03-11T21:36:29.410Z,98719.84
2023-03-11T21:38:56.839Z,98731.03
2023-03-11T21:41:27.081Z,98736.09
2023-03-11T21:43:56.619Z,98740.22
2023-03-11T21:46:30.045Z,98736.38
2023-03-11T21:48:58.997Z,98743.69
2023-03-11T21:51:27.634Z,98758.13
2023-03-11T21:53:54.978Z,98773.16
2023-03-11T21:56:22.522Z,98771.69
2023-03-11T21:58:49.945Z,98779.25
2023-03-11T22:01:17.306Z,98787.72
2023-03-11T22:03:44.727Z,98788.41
2023-03-11T22:06:13.189Z,98790.22
2023-03-11T22:08:42.420Z,98788.28
2023-03-11T22:11:17.771Z,98795.50
2023-03-11T22:13:51.110Z,98802.72
2023-03-11T22:16:21.010Z,98815.13
2023-03-11T22:18:48.894Z,98814.53
2023-03-11T22:21:18.589Z,98825.38
2023-03-11T22:23:46.278Z,98834.94
2023-03-11T22:26:14.844Z,98832.91
2023-03-11T22:28:42.603Z,98849.44
2023-03-11T22:31:14.087Z,98852.53
2023-03-11T22:33:41.482Z,98857.59
2023-03-11T22:36:09.528Z,98865.03
2023-03-11T22:38:36.948Z,98878.88
2023-03-11T22:41:08.047Z,98871.53
2023-03-11T22:43:36.948Z,98892.50
2023-03-11T22:46:06.726Z,98898.47
2023-03-11T22:48:34.830Z,98907.03
2023-03-11T22:51:02.206Z,98904.50
2023-03-11T22:53:29.471Z,98925.56
2023-03-11T22:55:56.694Z,98927.44
2023-03-11T22:58:23.877Z,98928.47
2023-03-11T23:00:51.161Z,98921.66
2023-03-11T23:03:18.372Z,98921.84
2023-03-11T23:05:46.826Z,98937.81
2023-03-11T23:08:16.305Z,98945.16
2023-03-11T23:10:47.351Z,98954.72
2023-03-11T23:13:15.310Z,98965.94
2023-03-11T23:15:45.892Z,98964.31
2023-03-11T23:18:15.819Z,98963.88
2023-03-11T23:20:43.899Z,98970.81
2023-03-11T23:23:13.385Z,98975.75
2023-03-11T23:25:41.568Z,98973.47
2023-03-11T23:28:08.941Z,98985.28
2023-03-11T23:30:36.409Z,98986.34
2023-03-11T23:33:04.029Z,98990.72
2023-03-11T23:35:32.384Z,98987.59
2023-03-11T23:38:00.293Z,98997.97
2023-03-11T23:40:27.833Z,99007.34
2023-03-11T23:42:55.307Z,99008.38
2023-03-11T23:45:22.585Z,99013.47
2023-03-11T23:47:50.112Z,99017.84
2023-03-11T23:50:17.428Z,99015.97
2023-03-11T23:52:44.631Z,99021.50
2023-03-11T23:55:12.606Z,99023.28
2023-03-11T23:57:39.840Z,99023.63
